createdAt,value
2022-10-20T00:04:18.127Z,70.05
2022-10-20T00:06:44.517Z,70.86
2022-10-20T00:09:11.330Z,69.27
2022-10-20T00:11:37.854Z,70.07
2022-10-20T00:14:05.038Z,69.29
2022-10-20T00:16:34.716Z,68.55
2022-10-20T00:19:01.097Z,69.28
2022-10-20T00:21:28.960Z,70.23
2022-10-20T00:23:55.512Z,69.90
2022-10-20T00:26:24.827Z,70.65
2022-10-20T00:28:52.509Z,70.36
2022-10-20T00:31:20.382Z,70.56
2022-10-20T00:33:47.536Z,69.99
2022-10-20T00:36:16.417Z,69.39
2022-10-20T00:38:43.336Z,70.31
2022-10-20T00:41:13.422Z,70.10
2022-10-20T00:43:44.253Z,70.50
2022-10-20T00:46:13.761Z,70.77
2022-10-20T00:48:41.922Z,70.27
2022-10-20T00:51:08.602Z,70.69
2022-10-20T00:53:36.065Z,71.23
2022-10-20T00:56:02.808Z,71.22
2022-10-20T00:58:29.476Z,70.92
2022-10-20T01:00:58.793Z,70.95
2022-10-20T01:03:34.869Z,71.21
2022-10-20T01:06:01.252Z,71.20
2022-10-20T01:08:27.751Z,70.84
2022-10-20T01:11:17.863Z,70.54
2022-10-20T01:13:56.334Z,70.74
2022-10-20T01:16:46.758Z,71.33
2022-10-20T01:19:13.076Z,70.92
2022-10-20T01:22:14.097Z,70.96
2022-10-20T01:25:08.906Z,70.75
2022-10-20T01:27:42.011Z,71.69
2022-10-20T01:30:12.677Z,70.96
2022-10-20T01:32:39.013Z,70.61
2022-10-20T01:35:21.715Z,70.60
2022-10-20T01:38:01.095Z,70.08
2022-10-20T01:40:53.094Z,70.33
2022-10-20T01:43:22.845Z,70.54
2022-10-20T01:45:51.081Z,70.10
2022-10-20T01:48:21.494Z,71.38
2022-10-20T01:50:49.837Z,71.99
2022-10-20T01:53:16.789Z,71.43
2022-10-20T01:55:43.552Z,70.94
2022-10-20T01:58:32.374Z,72.18
2022-10-20T02:01:13.354Z,71.20
2022-10-20T02:03:52.630Z,72.29
2022-10-20T02:06:32.559Z,70.79
2022-10-20T02:09:06.986Z,72.64
2022-10-20T02:11:36.416Z,72.18
2022-10-20T02:14:04.802Z,72.62
2022-10-20T02:16:40.966Z,71.76
2022-10-20T02:19:10.949Z,72.20
2022-10-20T02:21:37.594Z,72.13
2022-10-20T02:24:08.641Z,71.70
2022-10-20T02:26:37.993Z,73.43
2022-10-20T02:29:17.152Z,72.79
2022-10-20T02:31:44.943Z,73.20
2022-10-20T02:34:12.143Z,72.79
2022-10-20T02:36:41.541Z,72.53
2022-10-20T02:39:09.340Z,73.36
2022-10-20T02:41:36.149Z,74.06
2022-10-20T02:44:02.554Z,72.74
2022-10-20T02:46:29.004Z,73.66
2022-10-20T02:48:55.458Z,74.17
2022-10-20T02:51:21.986Z,73.72
2022-10-20T02:53:49.743Z,71.97
2022-10-20T02:56:16.129Z,72.69
2022-10-20T02:58:43.844Z,72.92
2022-10-20T03:01:10.295Z,72.77
2022-10-20T03:03:36.807Z,73.71
2022-10-20T03:06:15.159Z,73.76
2022-10-20T03:08:42.424Z,73.42
2022-10-20T03:11:09.348Z,73.97
2022-10-20T03:13:35.742Z,74.42
2022-10-20T03:16:02.311Z,72.38
2022-10-20T03:18:28.728Z,73.21
2022-10-20T03:20:55.302Z,73.09
2022-10-20T03:23:21.989Z,72.99
2022-10-20T03:25:48.491Z,72.46
2022-10-20T03:28:15.015Z,72.58
2022-10-20T03:30:41.417Z,72.87
2022-10-20T03:33:07.898Z,72.06
2022-10-20T03:35:34.302Z,72.69
2022-10-20T03:38:00.693Z,72.37
2022-10-20T03:40:27.080Z,72.70
2022-10-20T03:42:53.434Z,72.97
2022-10-20T03:45:19.812Z,74.18
2022-10-20T03:47:46.196Z,72.49
2022-10-20T03:50:12.584Z,73.46
2022-10-20T03:52:39.220Z,73.08
2022-10-20T03:55:05.982Z,75.04
2022-10-20T03:57:32.382Z,74.97
2022-10-20T03:59:58.751Z,73.05
2022-10-20T04:02:37.247Z,73.57
2022-10-20T04:05:04.802Z,73.41
2022-10-20T04:07:31.481Z,73.55
2022-10-20T04:09:58.295Z,74.02
2022-10-20T04:12:25.034Z,73.97
2022-10-20T04:14:51.732Z,73.81
2022-10-20T04:17:18.134Z,74.04
2022-10-20T04:19:44.539Z,75.16
2022-10-20T04:22:10.995Z,74.92
2022-10-20T04:24:37.394Z,73.93
2022-10-20T04:27:04.357Z,73.47
2022-10-20T04:29:31.012Z,73.64
2022-10-20T04:31:57.964Z,74.66
2022-10-20T04:34:24.430Z,73.83
2022-10-20T04:36:51.011Z,74.14
2022-10-20T04:39:17.459Z,74.95
2022-10-20T04:41:43.903Z,74.30
2022-10-20T04:44:10.316Z,74.25
2022-10-20T04:46:36.736Z,75.01
2022-10-20T04:49:04.013Z,75.51
2022-10-20T04:51:30.465Z,75.50
2022-10-20T04:53:56.917Z,75.83
2022-10-20T04:56:23.688Z,76.72
2022-10-20T04:59:00.056Z,74.47
2022-10-20T05:01:28.799Z,74.70
2022-10-20T05:03:55.549Z,75.30
2022-10-20T05:06:30.426Z,75.91
2022-10-20T05:08:59.411Z,75.13
2022-10-20T05:11:28.727Z,76.23
2022-10-20T05:13:55.905Z,76.55
2022-10-20T05:16:22.821Z,76.99
2022-10-20T05:18:49.254Z,77.23
2022-10-20T05:21:20.305Z,76.46
2022-10-20T05:23:46.767Z,76.46
2022-10-20T05:26:18.613Z,76.03
2022-10-20T05:28:47.482Z,76.79
2022-10-20T05:31:14.942Z,77.62
2022-10-20T05:33:46.188Z,77.28
2022-10-20T05:36:19.248Z,77.03
2022-10-20T05:38:48.221Z,78.48
2022-10-20T05:41:17.128Z,78.09
2022-10-20T05:43:48.682Z,78.57
2022-10-20T05:46:15.234Z,77.42
2022-10-20T05:48:43.252Z,78.27
2022-10-20T05:51:14.758Z,77.84
2022-10-20T05:53:42.624Z,78.28
2022-10-20T05:56:12.384Z,78.22
2022-10-20T05:58:39.654Z,76.98
2022-10-20T06:01:16.885Z,77.25
2022-10-20T06:03:50.994Z,78.12
2022-10-20T06:06:18.692Z,75.73
2022-10-20T06:08:45.578Z,77.66
2022-10-20T06:11:14.115Z,76.23
2022-10-20T06:13:40.566Z,75.67
2022-10-20T06:16:08.353Z,76.57
2022-10-20T06:18:35.098Z,76.72
2022-10-20T06:21:03.428Z,77.38
2022-10-20T06:23:29.957Z,75.64
2022-10-20T06:26:01.862Z,75.22
2022-10-20T06:28:30.962Z,75.66
2022-10-20T06:30:57.634Z,75.17
2022-10-20T06:33:24.445Z,75.19
2022-10-20T06:35:50.932Z,75.35
2022-10-20T06:38:17.449Z,74.08
2022-10-20T06:40:43.853Z,74.67
2022-10-20T06:43:10.292Z,75.60
2022-10-20T06:45:36.704Z,75.35
2022-10-20T06:48:03.252Z,73.84
2022-10-20T06:50:29.695Z,74.38
2022-10-20T06:52:56.095Z,74.69
2022-10-20T06:55:22.563Z,74.97
2022-10-20T06:57:49.034Z,73.89
2022-10-20T07:00:15.538Z,72.73
2022-10-20T07:02:41.960Z,73.60
2022-10-20T07:05:08.689Z,74.31
2022-10-20T07:10:06.868Z,73.61
2022-10-20T07:12:33.431Z,71.60
2022-10-20T07:14:59.831Z,71.80
2022-10-20T07:17:26.233Z,72.75
2022-10-20T07:19:52.745Z,71.97
2022-10-20T07:22:19.194Z,73.73
2022-10-20T07:24:45.578Z,74.26
2022-10-20T07:27:12.033Z,72.57
2022-10-20T07:29:38.499Z,72.53
2022-10-20T07:32:05.065Z,74.87
2022-10-20T07:34:31.559Z,74.24
2022-10-20T07:36:58.421Z,74.98
2022-10-20T07:39:25.441Z,74.01
2022-10-20T07:41:52.336Z,72.42
2022-10-20T07:44:18.835Z,73.13
2022-10-20T07:46:45.535Z,73.23
2022-10-20T07:51:58.864Z,71.86
2022-10-20T07:54:25.368Z,70.99
2022-10-20T07:56:51.997Z,71.15
2022-10-20T07:59:19.076Z,68.55
2022-10-20T08:01:45.737Z,67.38
2022-10-20T08:04:12.221Z,68.78
2022-10-20T08:06:39.204Z,66.88
2022-10-20T08:09:06.047Z,67.49
2022-10-20T08:11:32.744Z,66.97
2022-10-20T08:13:59.193Z,67.91
2022-10-20T08:16:30.393Z,68.65
2022-10-20T08:21:49.683Z,65.94
2022-10-20T08:24:16.104Z,63.61
2022-10-20T08:26:42.507Z,62.61
2022-10-20T08:29:09.831Z,59.57
2022-10-20T08:31:36.246Z,60.79
2022-10-20T08:34:27.190Z,59.69
2022-10-20T08:36:53.627Z,59.88
2022-10-20T08:39:20.019Z,61.08
2022-10-20T08:44:39.757Z,56.35
2022-10-20T08:47:29.235Z,55.81
2022-10-20T08:49:59.737Z,57.03
2022-10-20T08:52:27.385Z,55.46
2022-10-20T08:54:56.858Z,53.54
2022-10-20T08:57:28.643Z,55.79
2022-10-20T09:00:00.277Z,51.94
2022-10-20T09:02:29.005Z,48.88
2022-10-20T09:04:59.541Z,48.27
2022-10-20T09:07:31.840Z,49.62
2022-10-20T09:10:07.369Z,49.97
2022-10-20T09:12:34.568Z,48.38
2022-10-20T09:15:01.475Z,50.30
2022-10-20T09:17:28.026Z,50.55
2022-10-20T09:19:59.524Z,52.41
2022-10-20T09:22:30.961Z,54.85
2022-10-20T09:25:01.276Z,54.43
2022-10-20T09:27:39.657Z,54.78
2022-10-20T09:30:18.383Z,53.76
2022-10-20T09:32:56.665Z,54.28
2022-10-20T09:35:36.295Z,52.89
2022-10-20T09:38:16.144Z,54.35
2022-10-20T09:40:57.586Z,59.00
2022-10-20T09:43:25.894Z,59.31
2022-10-20T09:45:56.030Z,61.56
2022-10-20T09:48:27.298Z,61.46
2022-10-20T09:50:56.601Z,63.18
2022-10-20T09:53:31.860Z,63.14
2022-10-20T09:55:58.573Z,63.69
2022-10-20T09:58:30.253Z,63.56
2022-10-20T10:01:12.963Z,62.04
2022-10-20T10:03:45.998Z,62.45
2022-10-20T10:06:31.109Z,63.20
2022-10-20T10:09:00.416Z,64.82
2022-10-20T10:11:33.781Z,62.75
2022-10-20T10:14:01.205Z,62.97
2022-10-20T10:16:38.502Z,63.85
2022-10-20T10:19:05.615Z,65.35
2022-10-20T10:21:48.572Z,66.96
2022-10-20T10:24:33.983Z,66.45
2022-10-20T10:27:00.435Z,65.03
2022-10-20T10:29:28.778Z,65.97
2022-10-20T10:32:04.025Z,66.07
2022-10-20T10:34:58.278Z,66.35
2022-10-20T10:37:24.670Z,66.08
2022-10-20T10:39:51.175Z,65.08
2022-10-20T10:42:32.765Z,65.42
2022-10-20T10:45:18.704Z,65.31
2022-10-20T10:47:57.014Z,65.66
2022-10-20T10:50:46.689Z,65.26
2022-10-20T10:53:20.710Z,65.67
2022-10-20T10:56:00.280Z,64.21
2022-10-20T10:58:46.574Z,62.92
2022-10-20T11:01:18.927Z,64.16
2022-10-20T11:04:22.726Z,63.78
2022-10-20T11:07:03.836Z,62.46
2022-10-20T11:09:41.933Z,61.31
2022-10-20T11:12:42.714Z,61.95
2022-10-20T11:15:43.054Z,62.73
2022-10-20T11:18:33.553Z,61.00
2022-10-20T11:21:31.687Z,61.56
2022-10-20T11:24:07.046Z,60.65
2022-10-20T11:26:39.613Z,61.01
2022-10-20T11:29:31.631Z,61.51
2022-10-20T11:32:20.222Z,60.58
2022-10-20T11:35:28.105Z,59.73
2022-10-20T11:38:19.243Z,58.72
2022-10-20T11:40:59.374Z,57.66
2022-10-20T11:43:44.685Z,57.25
2022-10-20T11:46:19.928Z,57.08
2022-10-20T11:48:52.669Z,56.65
2022-10-20T11:51:24.810Z,56.39
2022-10-20T11:54:19.169Z,56.88
2022-10-20T11:57:10.595Z,55.27
2022-10-20T11:59:46.134Z,54.22
2022-10-20T12:03:03.134Z,53.90
2022-10-20T12:05:36.271Z,53.26
2022-10-20T12:08:29.941Z,54.09
2022-10-20T12:11:40.906Z,54.53
2022-10-20T12:14:24.473Z,54.42
2022-10-20T12:17:02.559Z,53.97
2022-10-20T12:19:31.586Z,54.10
2022-10-20T12:22:03.936Z,54.22
2022-10-20T12:24:42.026Z,53.64
2022-10-20T12:27:08.371Z,54.06
2022-10-20T12:29:34.699Z,53.63
2022-10-20T12:32:25.647Z,53.19
2022-10-20T12:35:00.532Z,52.81
2022-10-20T12:37:30.268Z,53.90
2022-10-20T12:40:23.903Z,53.36
2022-10-20T12:42:53.676Z,54.85
2022-10-20T12:45:20.006Z,53.97
2022-10-20T12:47:53.873Z,56.08
2022-10-20T12:50:42.462Z,56.24
2022-10-20T12:53:17.887Z,56.07
2022-10-20T12:55:46.962Z,56.65
2022-10-20T12:58:19.502Z,56.91
2022-10-20T13:00:45.952Z,57.82
2022-10-20T13:03:48.926Z,56.18
2022-10-20T13:06:24.752Z,56.24
2022-10-20T13:09:03.786Z,56.55
2022-10-20T13:11:37.553Z,57.14
2022-10-20T13:14:13.107Z,56.92
2022-10-20T13:16:50.228Z,56.84
2022-10-20T13:19:24.543Z,57.55
2022-10-20T13:21:51.379Z,58.15
2022-10-20T13:24:47.620Z,58.63
2022-10-20T13:27:16.335Z,58.68
2022-10-20T13:29:43.756Z,57.21
2022-10-20T13:32:20.909Z,56.14
2022-10-20T13:34:51.770Z,57.14
2022-10-20T13:37:37.067Z,57.18
2022-10-20T13:40:10.617Z,58.31
2022-10-20T13:43:04.568Z,57.55
2022-10-20T13:45:49.295Z,56.80
2022-10-20T13:48:36.994Z,56.75
2022-10-20T13:51:17.166Z,59.36
2022-10-20T13:53:49.996Z,57.50
2022-10-20T13:56:16.335Z,58.48
2022-10-20T13:59:04.506Z,58.42
2022-10-20T14:01:34.440Z,58.25
2022-10-20T14:04:01.320Z,58.06
2022-10-20T14:06:27.988Z,58.92
2022-10-20T14:08:55.447Z,59.30
2022-10-20T14:11:22.420Z,59.04
2022-10-20T14:13:49.143Z,58.75
2022-10-20T14:16:20.504Z,57.85
2022-10-20T14:19:05.624Z,58.33
2022-10-20T14:21:43.300Z,57.54
2022-10-20T14:24:18.930Z,59.65
2022-10-20T14:26:45.882Z,58.39
2022-10-20T14:29:16.124Z,58.27
2022-10-20T14:31:43.388Z,59.30
2022-10-20T14:34:33.160Z,59.79
2022-10-20T14:37:00.605Z,59.75
2022-10-20T14:39:26.962Z,60.58
2022-10-20T14:41:57.032Z,59.03
2022-10-20T14:44:31.543Z,60.33
2022-10-20T14:47:05.224Z,58.96
2022-10-20T14:49:38.007Z,58.76
2022-10-20T14:52:21.240Z,60.83
2022-10-20T14:54:50.057Z,61.46
2022-10-20T14:57:16.408Z,60.13
2022-10-20T15:00:04.412Z,61.18
2022-10-20T15:02:39.055Z,59.51
2022-10-20T15:05:45.117Z,60.59
2022-10-20T15:08:28.389Z,59.90
2022-10-20T15:10:55.745Z,60.97
2022-10-20T15:13:28.453Z,61.80
2022-10-20T15:15:55.725Z,61.75
2022-10-20T15:18:23.904Z,61.69
2022-10-20T15:20:53.730Z,61.67
2022-10-20T15:23:27.719Z,61.94
2022-10-20T15:26:23.356Z,62.09
2022-10-20T15:28:50.275Z,61.28
2022-10-20T15:31:18.983Z,61.36
2022-10-20T15:33:46.334Z,60.80
2022-10-20T15:36:15.865Z,60.66
2022-10-20T15:38:42.891Z,61.36
2022-10-20T15:41:13.365Z,61.53
2022-10-20T15:43:39.768Z,62.23
2022-10-20T15:46:06.161Z,62.05
2022-10-20T15:48:32.539Z,62.82
2022-10-20T15:51:01.809Z,61.19
2022-10-20T15:53:28.211Z,63.61
2022-10-20T15:55:54.791Z,62.26
2022-10-20T15:58:21.318Z,63.31
2022-10-20T16:00:47.947Z,63.53
2022-10-20T16:03:18.577Z,64.85
2022-10-20T16:05:46.728Z,63.18
2022-10-20T16:10:44.518Z,65.09
2022-10-20T16:13:11.838Z,64.64
2022-10-20T16:15:38.351Z,63.82
2022-10-20T16:18:07.297Z,65.47
2022-10-20T16:20:36.055Z,65.65
2022-10-20T16:23:02.482Z,64.14
2022-10-20T16:25:28.893Z,64.94
2022-10-20T16:27:55.338Z,65.67
2022-10-20T16:30:21.795Z,64.32
2022-10-20T16:32:48.257Z,64.28
2022-10-20T16:35:14.800Z,64.70
2022-10-20T16:37:41.219Z,64.22
2022-10-20T16:40:08.168Z,64.43
2022-10-20T16:42:34.702Z,64.94
2022-10-20T16:45:01.073Z,64.82
2022-10-20T16:47:27.524Z,64.92
2022-10-20T16:49:54.036Z,64.08
2022-10-20T16:52:20.517Z,64.14
2022-10-20T16:54:47.073Z,64.57
2022-10-20T16:57:14.116Z,63.98
2022-10-20T16:59:42.543Z,63.96
2022-10-20T17:02:12.247Z,64.10
2022-10-20T17:04:38.670Z,64.87
2022-10-20T17:07:05.676Z,63.72
2022-10-20T17:09:32.077Z,64.35
2022-10-20T17:11:58.502Z,63.28
2022-10-20T17:14:25.118Z,62.81
2022-10-20T17:16:51.611Z,63.03
2022-10-20T17:19:18.034Z,63.29
2022-10-20T17:21:44.487Z,64.09
2022-10-20T17:24:12.199Z,64.02
2022-10-20T17:26:40.128Z,64.30
2022-10-20T17:29:06.809Z,64.29
2022-10-20T17:31:33.199Z,65.34
2022-10-20T17:33:59.848Z,64.25
2022-10-20T17:36:27.120Z,64.78
2022-10-20T17:38:56.243Z,66.57
2022-10-20T17:41:23.030Z,66.96
2022-10-20T17:43:49.680Z,65.68
2022-10-20T17:46:18.204Z,66.77
2022-10-20T17:48:45.286Z,66.89
2022-10-20T17:51:17.421Z,68.19
2022-10-20T17:53:47.928Z,69.59
2022-10-20T17:56:17.551Z,70.87
2022-10-20T17:58:46.443Z,70.94
2022-10-20T18:01:42.234Z,71.56
2022-10-20T18:04:14.838Z,71.35
2022-10-20T18:06:43.058Z,71.66
2022-10-20T18:09:12.748Z,72.97
2022-10-20T18:11:42.616Z,73.62
2022-10-20T18:14:09.051Z,75.33
2022-10-20T18:16:37.205Z,75.49
2022-10-20T18:19:04.572Z,74.84
2022-10-20T18:21:31.932Z,75.81
2022-10-20T18:24:02.355Z,77.09
2022-10-20T18:26:30.419Z,77.42
2022-10-20T18:28:58.570Z,76.45
2022-10-20T18:31:27.350Z,76.95
2022-10-20T18:34:02.630Z,77.48
2022-10-20T18:36:33.371Z,78.21
2022-10-20T18:39:00.871Z,78.34
2022-10-20T18:41:30.392Z,77.99
2022-10-20T18:43:59.675Z,78.36
2022-10-20T18:46:28.340Z,77.78
2022-10-20T18:48:55.591Z,79.00
2022-10-20T18:51:22.706Z,80.23
2022-10-20T18:53:53.539Z,79.38
2022-10-20T18:56:21.980Z,79.94
2022-10-20T18:58:53.839Z,79.23
2022-10-20T19:01:23.047Z,79.80
2022-10-20T19:03:52.282Z,80.15
2022-10-20T19:06:24.564Z,79.82
2022-10-20T19:08:56.088Z,79.51
2022-10-20T19:11:24.650Z,79.30
2022-10-20T19:13:51.672Z,80.08
2022-10-20T19:16:21.671Z,81.49
2022-10-20T19:18:50.587Z,81.85
2022-10-20T19:21:18.037Z,80.60
2022-10-20T19:23:48.183Z,80.04
2022-10-20T19:26:21.687Z,80.48
2022-10-20T19:29:00.500Z,81.01
2022-10-20T19:31:34.535Z,79.82
2022-10-20T19:34:05.847Z,79.56
2022-10-20T19:36:33.101Z,78.63
2022-10-20T19:38:59.559Z,77.69
2022-10-20T19:41:26.813Z,78.24
2022-10-20T19:43:53.504Z,78.68
2022-10-20T19:46:21.304Z,78.43
2022-10-20T19:48:48.937Z,78.12
2022-10-20T19:51:16.829Z,79.53
2022-10-20T19:53:43.622Z,80.10
2022-10-20T19:56:10.647Z,79.54
2022-10-20T19:58:41.374Z,78.18
2022-10-20T20:01:10.691Z,78.42
2022-10-20T20:03:37.199Z,78.92
2022-10-20T20:06:17.868Z,78.38
2022-10-20T20:08:46.054Z,78.95
2022-10-20T20:11:23.345Z,78.82
2022-10-20T20:13:55.413Z,79.51
2022-10-20T20:16:21.875Z,78.75
2022-10-20T20:18:48.810Z,79.29
2022-10-20T20:21:16.034Z,78.30
2022-10-20T20:23:58.453Z,78.41
2022-10-20T20:26:26.408Z,80.23
2022-10-20T20:28:54.438Z,80.24
2022-10-20T20:31:22.008Z,79.14
2022-10-20T20:33:49.614Z,80.64
2022-10-20T20:36:16.579Z,80.98
2022-10-20T20:38:43.119Z,79.85
2022-10-20T20:41:15.048Z,80.18
2022-10-20T20:43:45.330Z,80.24
2022-10-20T20:46:15.170Z,81.68
2022-10-20T20:48:45.238Z,80.61
2022-10-20T20:51:12.800Z,79.76
2022-10-20T20:53:40.457Z,80.23
2022-10-20T20:56:09.713Z,81.07
2022-10-20T20:58:36.420Z,81.12
2022-10-20T21:01:05.649Z,80.25
2022-10-20T21:03:32.839Z,79.89
2022-10-20T21:06:06.738Z,79.40
2022-10-20T21:08:34.497Z,80.26
2022-10-20T21:11:06.092Z,80.65
2022-10-20T21:13:34.016Z,79.87
2022-10-20T21:16:13.958Z,78.42
2022-10-20T21:18:42.094Z,78.12
2022-10-20T21:21:16.237Z,79.56
2022-10-20T21:23:43.335Z,78.86
2022-10-20T21:26:11.728Z,77.92
2022-10-20T21:28:38.261Z,79.03
2022-10-20T21:31:06.151Z,80.09
2022-10-20T21:33:33.284Z,79.29
2022-10-20T21:36:01.507Z,78.51
2022-10-20T21:38:35.050Z,78.57
2022-10-20T21:41:12.768Z,79.24
2022-10-20T21:43:42.055Z,77.59
2022-10-20T21:46:17.683Z,77.21
2022-10-20T21:48:46.399Z,78.00
2022-10-20T21:51:26.022Z,77.53
2022-10-20T21:54:03.736Z,78.54
2022-10-20T21:56:33.021Z,78.71
2022-10-20T21:58:59.477Z,77.75
2022-10-20T22:01:26.213Z,77.89
2022-10-20T22:03:53.962Z,78.95
2022-10-20T22:06:23.438Z,77.60
2022-10-20T22:08:55.758Z,77.64
2022-10-20T22:11:31.664Z,76.89
2022-10-20T22:13:58.764Z,77.79
2022-10-20T22:16:30.573Z,77.68
2022-10-20T22:19:00.247Z,77.28
2022-10-20T22:21:27.855Z,77.71
2022-10-20T22:23:55.577Z,77.88
2022-10-20T22:26:25.686Z,78.29
2022-10-20T22:28:53.238Z,77.10
2022-10-20T22:31:19.888Z,76.95
2022-10-20T22:33:46.310Z,77.22
2022-10-20T22:36:12.770Z,78.04
2022-10-20T22:38:39.163Z,77.51
2022-10-20T22:41:05.662Z,79.18
2022-10-20T22:43:32.221Z,81.10
2022-10-20T22:45:58.804Z,81.46
2022-10-20T22:48:25.710Z,80.42
2022-10-20T22:50:52.256Z,80.97
2022-10-20T22:53:19.125Z,80.84
2022-10-20T22:55:45.842Z,79.81
2022-10-20T22:58:12.359Z,78.77
2022-10-20T23:00:43.488Z,78.58
2022-10-20T23:03:10.776Z,77.84
2022-10-20T23:05:37.580Z,78.24
2022-10-20T23:08:04.399Z,77.83
2022-10-20T23:10:30.913Z,78.96
2022-10-20T23:12:57.346Z,78.35
2022-10-20T23:15:23.855Z,77.95
2022-10-20T23:17:50.262Z,78.38
2022-10-20T23:20:16.665Z,78.22
2022-10-20T23:22:43.073Z,78.30
2022-10-20T23:25:09.695Z,77.99
2022-10-20T23:27:36.417Z,78.54
2022-10-20T23:30:04.024Z,77.72
2022-10-20T23:32:30.530Z,78.03
2022-10-20T23:34:56.915Z,78.45
2022-10-20T23:37:23.610Z,78.24
2022-10-20T23:39:49.987Z,78.45
2022-10-20T23:42:16.386Z,78.59
2022-10-20T23:44:42.991Z,78.70
2022-10-20T23:47:09.398Z,79.88
2022-10-20T23:49:35.811Z,79.84
2022-10-20T23:52:02.216Z,80.36
2022-10-20T23:54:28.599Z,81.85
2022-10-20T23:56:57.605Z,80.87
2022-10-20T23:59:24.044Z,80.25
